createdAt,value
2016-09-22T00:00:16.750Z,99.47
2016-09-22T00:01:16.751Z,99.66
2016-09-22T00:02:16.787Z,99.37
2016-09-22T00:03:16.870Z,99.66
2016-09-22T00:04:16.825Z,99.57
2016-09-22T00:05:16.851Z,99.18
2016-09-22T00:06:16.558Z,98.71
2016-09-22T00:07:16.576Z,98.99
2016-09-22T00:08:16.959Z,98.99
2016-09-22T00:09:16.619Z,98.94
2016-09-22T00:10:16.652Z,98.75
2016-09-22T00:11:16.981Z,98.66
2016-09-22T00:12:16.989Z,99.18
2016-09-22T00:13:17.018Z,99.04
2016-09-22T00:14:17.032Z,98.94
2016-09-22T00:15:17.060Z,99.13
2016-09-22T00:16:17.070Z,98.99
2016-09-22T00:17:17.092Z,98.9
2016-09-22T00:18:17.110Z,98.99
2016-09-22T00:19:16.819Z,98.71
2016-09-22T00:20:16.839Z,98.71
2016-09-22T00:21:17.168Z,98.52
2016-09-22T00:22:16.886Z,98.32
2016-09-22T00:23:16.952Z,98.42
2016-09-22T00:24:16.929Z,98.27
2016-09-22T00:25:17.257Z,98.37
2016-09-22T00:26:17.310Z,98.61
2016-09-22T00:27:17.302Z,98.56
2016-09-22T00:28:17.012Z,98.75
2016-09-22T00:29:17.340Z,98.32
2016-09-22T00:30:17.098Z,98.61
2016-09-22T00:31:17.073Z,98.56
2016-09-22T00:32:17.550Z,98.8
2016-09-22T00:33:17.153Z,98.18
2016-09-22T00:34:17.444Z,98.56
2016-09-22T00:35:17.477Z,98.61
2016-09-22T00:36:17.479Z,98.56
2016-09-22T00:37:17.500Z,98.47
2016-09-22T00:38:17.516Z,98.66
2016-09-22T00:39:17.541Z,98.47
2016-09-22T00:40:17.558Z,97.89
2016-09-22T00:41:17.571Z,98.08
2016-09-22T00:42:17.590Z,98.08
2016-09-22T00:43:17.620Z,98.27
2016-09-22T00:44:17.778Z,98.27
2016-09-22T00:45:17.779Z,98.75
2016-09-22T00:46:17.379Z,98.66
2016-09-22T00:47:17.740Z,98.66
2016-09-22T00:48:17.783Z,98.56
2016-09-22T00:49:17.739Z,98.56
2016-09-22T00:50:17.813Z,98.37
2016-09-22T00:51:17.480Z,98.75
2016-09-22T00:52:17.808Z,98.18
2016-09-22T00:53:17.881Z,98.08
2016-09-22T00:54:17.849Z,98.08
2016-09-22T00:55:17.871Z,98.27
2016-09-22T00:56:17.889Z,98.18
2016-09-22T00:57:17.902Z,98.18
2016-09-22T00:58:18.083Z,98.27
2016-09-22T00:59:17.640Z,98.37
2016-09-22T01:00:18.003Z,98.27
2016-09-22T01:01:17.981Z,98.18
2016-09-22T01:02:17.687Z,98.37
2016-09-22T01:03:18.028Z,98.18
2016-09-22T01:04:18.059Z,98.18
2016-09-22T01:05:18.072Z,98.32
2016-09-22T01:06:17.787Z,98.22
2016-09-22T01:07:18.115Z,97.85
2016-09-22T01:08:18.131Z,98.22
2016-09-22T01:09:18.153Z,98.32
2016-09-22T01:10:17.864Z,97.8
2016-09-22T01:11:18.282Z,98.03
2016-09-22T01:12:18.198Z,97.56
2016-09-22T01:13:18.005Z,97.46
2016-09-22T01:14:17.941Z,97.46
2016-09-22T01:15:18.260Z,97.56
2016-09-22T01:16:17.967Z,97.56
2016-09-22T01:17:18.000Z,98.22
2016-09-22T01:18:18.372Z,97.94
2016-09-22T01:19:18.356Z,97.42
2016-09-22T01:20:18.367Z,97.37
2016-09-22T01:21:18.397Z,97.08
2016-09-22T01:22:18.098Z,97.85
2016-09-22T01:23:18.170Z,97.46
2016-09-22T01:24:18.448Z,97.22
2016-09-22T01:25:18.466Z,96.89
2016-09-22T01:26:18.181Z,96.7
2016-09-22T01:27:18.507Z,96.94
2016-09-22T01:28:18.531Z,97.08
2016-09-22T01:29:18.541Z,96.8
2016-09-22T01:30:18.569Z,96.8
2016-09-22T01:31:18.589Z,96.7
2016-09-22T01:32:18.290Z,96.32
2016-09-22T01:33:18.679Z,96.61
2016-09-22T01:34:18.650Z,96.22
2016-09-22T01:35:18.670Z,96.41
2016-09-22T01:36:18.691Z,96.41
2016-09-22T01:37:18.722Z,96.61
2016-09-22T01:38:18.731Z,96.7
2016-09-22T01:39:18.741Z,96.7
2016-09-22T01:40:18.469Z,96.61
2016-09-22T01:41:18.481Z,96.32
2016-09-22T01:42:18.788Z,96.41
2016-09-22T01:43:18.570Z,96.03
2016-09-22T01:44:18.837Z,96.03
2016-09-22T01:45:18.880Z,95.75
2016-09-22T01:46:18.883Z,95.94
2016-09-22T01:47:18.902Z,95.94
2016-09-22T01:48:18.968Z,95.84
2016-09-22T01:49:18.936Z,95.75
2016-09-22T01:50:18.960Z,96.03
2016-09-22T01:51:18.980Z,95.84
2016-09-22T01:52:19.020Z,96.03
2016-09-22T01:53:19.075Z,96.03
2016-09-22T01:54:18.741Z,95.65
2016-09-22T01:55:19.060Z,95.56
2016-09-22T01:56:19.079Z,95.56
2016-09-22T01:57:19.101Z,95.65
2016-09-22T01:58:19.179Z,95.75
2016-09-22T01:59:19.154Z,95.75
2016-09-22T02:00:19.159Z,95.75
2016-09-22T02:01:18.873Z,95.65
2016-09-22T02:02:19.201Z,96.03
2016-09-22T02:03:19.271Z,95.75
2016-09-22T02:04:18.930Z,95.84
2016-09-22T02:05:18.937Z,95.65
2016-09-22T02:06:18.971Z,95.17
2016-09-22T02:07:19.298Z,95.46
2016-09-22T02:08:19.363Z,95.17
2016-09-22T02:09:19.340Z,95.37
2016-09-22T02:10:19.356Z,95.75
2016-09-22T02:11:19.069Z,95.84
2016-09-22T02:12:19.450Z,95.94
2016-09-22T02:13:19.105Z,95.56
2016-09-22T02:14:19.436Z,95.46
2016-09-22T02:15:19.479Z,95.27
2016-09-22T02:16:19.480Z,95.17
2016-09-22T02:17:19.498Z,94.98
2016-09-22T02:18:19.511Z,94.98
2016-09-22T02:19:19.540Z,95.27
2016-09-22T02:20:19.250Z,95.08
2016-09-22T02:21:19.591Z,95.46
2016-09-22T02:22:19.588Z,94.98
2016-09-22T02:23:19.599Z,94.98
2016-09-22T02:24:19.628Z,94.6
2016-09-22T02:25:19.383Z,94.41
2016-09-22T02:26:19.359Z,94.41
2016-09-22T02:27:19.389Z,94.22
2016-09-22T02:28:19.414Z,93.84
2016-09-22T02:29:19.728Z,93.84
2016-09-22T02:30:19.738Z,93.93
2016-09-22T02:31:19.772Z,94.03
2016-09-22T02:32:19.791Z,94.03
2016-09-22T02:33:19.825Z,94.03
2016-09-22T02:34:19.831Z,94.03
2016-09-22T02:35:19.850Z,93.93
2016-09-22T02:36:19.878Z,94.03
2016-09-22T02:37:19.578Z,93.84
2016-09-22T02:38:19.714Z,94.12
2016-09-22T02:39:19.617Z,94.12
2016-09-22T02:40:19.684Z,93.93
2016-09-22T02:41:20.013Z,94.22
2016-09-22T02:42:19.684Z,94.41
2016-09-22T02:43:20.008Z,93.93
2016-09-22T02:44:20.180Z,93.74
2016-09-22T02:45:19.848Z,93.84
2016-09-22T02:46:19.755Z,93.93
2016-09-22T02:47:20.076Z,93.93
2016-09-22T02:48:19.837Z,93.84
2016-09-22T02:49:20.250Z,93.74
2016-09-22T02:50:20.147Z,93.65
2016-09-22T02:51:20.234Z,93.27
2016-09-22T02:52:20.174Z,93.46
2016-09-22T02:53:19.925Z,93.74
2016-09-22T02:54:19.911Z,93.84
2016-09-22T02:55:20.290Z,93.55
2016-09-22T02:56:20.259Z,93.55
2016-09-22T02:57:20.290Z,93.55
2016-09-22T02:58:20.349Z,93.55
2016-09-22T02:59:20.330Z,93.46
2016-09-22T03:00:20.359Z,93.36
2016-09-22T03:01:20.560Z,93.55
2016-09-22T03:02:20.379Z,93.36
2016-09-22T03:03:20.402Z,93.36
2016-09-22T03:04:20.432Z,93.55
2016-09-22T03:05:20.442Z,93.36
2016-09-22T03:06:20.148Z,93.36
2016-09-22T03:07:20.486Z,93.55
2016-09-22T03:08:20.244Z,93.55
2016-09-22T03:09:20.219Z,93.55
2016-09-22T03:10:20.544Z,93.46
2016-09-22T03:11:20.565Z,93.74
2016-09-22T03:12:20.271Z,93.55
2016-09-22T03:13:20.651Z,93.36
2016-09-22T03:14:20.305Z,93.74
2016-09-22T03:15:20.342Z,92.98
2016-09-22T03:16:20.659Z,93.17
2016-09-22T03:17:20.679Z,93.08
2016-09-22T03:18:20.710Z,93.08
2016-09-22T03:19:20.406Z,93.36
2016-09-22T03:20:20.734Z,93.46
2016-09-22T03:21:20.758Z,93.36
2016-09-22T03:22:20.453Z,93.36
2016-09-22T03:23:20.849Z,93.36
2016-09-22T03:24:20.817Z,93.55
2016-09-22T03:25:20.838Z,93.27
2016-09-22T03:26:20.850Z,93.27
2016-09-22T03:27:20.868Z,93.17
2016-09-22T03:28:20.897Z,93.27
2016-09-22T03:29:20.919Z,93.08
2016-09-22T03:30:20.937Z,93.36
2016-09-22T03:31:20.959Z,93.46
2016-09-22T03:32:20.969Z,93.36
2016-09-22T03:33:20.687Z,93.55
2016-09-22T03:34:21.005Z,93.55
2016-09-22T03:35:21.043Z,93.55
2016-09-22T03:36:20.758Z,93.55
2016-09-22T03:37:21.084Z,93.36
2016-09-22T03:38:21.098Z,93.46
2016-09-22T03:39:21.106Z,93.46
2016-09-22T03:40:21.138Z,93.46
2016-09-22T03:41:20.841Z,93.46
2016-09-22T03:42:21.278Z,93.08
2016-09-22T03:43:21.274Z,93.08
2016-09-22T03:44:20.908Z,93.27
2016-09-22T03:45:21.234Z,93.36
2016-09-22T03:46:21.247Z,93.46
2016-09-22T03:47:21.266Z,93.08
2016-09-22T03:48:21.349Z,93.08
2016-09-22T03:49:20.997Z,92.98
2016-09-22T03:50:21.326Z,92.98
2016-09-22T03:51:21.042Z,92.98
2016-09-22T03:52:21.416Z,93.08
2016-09-22T03:53:21.399Z,93.46
2016-09-22T03:54:21.427Z,93.36
2016-09-22T03:55:21.128Z,93.27
2016-09-22T03:56:21.137Z,93.08
2016-09-22T03:57:21.160Z,93.08
2016-09-22T03:58:21.545Z,93.27
2016-09-22T03:59:21.512Z,93.08
2016-09-22T04:00:21.215Z,93.27
2016-09-22T04:01:21.241Z,93.36
2016-09-22T04:02:21.255Z,93.36
2016-09-22T04:03:21.316Z,93.27
2016-09-22T04:04:21.615Z,93.36
2016-09-22T04:05:21.421Z,93.36
2016-09-22T04:06:21.655Z,93.55
2016-09-22T04:07:21.459Z,93.36
2016-09-22T04:08:21.746Z,93.36
2016-09-22T04:09:21.456Z,93.12
2016-09-22T04:10:21.729Z,93.12
2016-09-22T04:11:21.440Z,93.22
2016-09-22T04:12:21.774Z,93.03
2016-09-22T04:13:21.536Z,93.51
2016-09-22T04:14:21.500Z,93.51
2016-09-22T04:15:21.527Z,93.6
2016-09-22T04:16:21.555Z,93.32
2016-09-22T04:17:21.897Z,93.32
2016-09-22T04:18:21.775Z,93.03
2016-09-22T04:19:21.951Z,93.41
2016-09-22T04:20:21.625Z,93.41
2016-09-22T04:21:21.965Z,93.22
2016-09-22T04:22:22.008Z,93.03
2016-09-22T04:23:21.680Z,93.41
2016-09-22T04:24:21.694Z,93.32
2016-09-22T04:25:22.010Z,93.32
2016-09-22T04:26:22.045Z,93.41
2016-09-22T04:27:22.063Z,93.41
2016-09-22T04:28:22.080Z,93.41
2016-09-22T04:29:21.829Z,93.51
2016-09-22T04:30:22.124Z,93.41
2016-09-22T04:31:21.833Z,93.12
2016-09-22T04:32:22.164Z,93.32
2016-09-22T04:33:22.019Z,93.03
2016-09-22T04:34:21.893Z,93.32
2016-09-22T04:35:22.221Z,93.27
2016-09-22T04:36:21.921Z,93.65
2016-09-22T04:37:22.256Z,93.27
2016-09-22T04:38:22.282Z,93.27
2016-09-22T04:39:22.289Z,93.08
2016-09-22T04:40:22.330Z,93.17
2016-09-22T04:41:22.333Z,93.27
2016-09-22T04:42:22.359Z,93.27
2016-09-22T04:43:22.103Z,92.89
2016-09-22T04:44:22.391Z,93.08
2016-09-22T04:45:22.415Z,93.27
2016-09-22T04:46:22.631Z,93.65
2016-09-22T04:47:22.142Z,93.46
2016-09-22T04:48:22.469Z,93.46
2016-09-22T04:49:22.178Z,93.27
2016-09-22T04:50:22.500Z,93.27
2016-09-22T04:51:22.531Z,93.46
2016-09-22T04:52:22.242Z,93.65
2016-09-22T04:53:22.611Z,93.65
2016-09-22T04:54:22.295Z,92.98
2016-09-22T04:55:22.600Z,93.27
2016-09-22T04:56:22.306Z,93.27
2016-09-22T04:57:22.647Z,92.98
2016-09-22T04:58:22.715Z,92.98
2016-09-22T04:59:22.358Z,93.65
2016-09-22T05:00:22.696Z,93.46
2016-09-22T05:01:22.409Z,93.55
2016-09-22T05:02:22.741Z,93.46
2016-09-22T05:03:22.450Z,93.27
2016-09-22T05:04:22.666Z,93.37
2016-09-22T05:05:22.788Z,93.65
2016-09-22T05:06:22.507Z,93.08
2016-09-22T05:07:22.831Z,93.55
2016-09-22T05:08:22.895Z,93.46
2016-09-22T05:09:22.876Z,93.55
2016-09-22T05:10:22.891Z,93.46
2016-09-22T05:11:22.599Z,93.46
2016-09-22T05:12:22.939Z,93.65
2016-09-22T05:13:22.687Z,93.55
2016-09-22T05:14:22.954Z,93.27
2016-09-22T05:15:22.987Z,92.98
2016-09-22T05:16:22.698Z,93.17
2016-09-22T05:17:23.027Z,93.27
2016-09-22T05:18:22.731Z,93.27
2016-09-22T05:19:23.056Z,93.27
2016-09-22T05:20:23.227Z,93.08
2016-09-22T05:21:23.100Z,93.08
2016-09-22T05:22:23.197Z,93.08
2016-09-22T05:23:22.828Z,92.98
2016-09-22T05:24:23.239Z,92.98
2016-09-22T05:25:23.374Z,93.08
2016-09-22T05:26:22.878Z,92.98
2016-09-22T05:27:23.211Z,93.37
2016-09-22T05:28:23.289Z,93.27
2016-09-22T05:29:23.249Z,93.27
2016-09-22T05:30:23.270Z,93.46
2016-09-22T05:31:22.980Z,93.27
2016-09-22T05:32:23.336Z,93.27
2016-09-22T05:33:23.362Z,93.37
2016-09-22T05:34:23.346Z,93.37
2016-09-22T05:35:23.473Z,93.46
2016-09-22T05:36:23.388Z,93.37
2016-09-22T05:37:23.397Z,93.37
2016-09-22T05:38:23.484Z,93.27
2016-09-22T05:39:23.131Z,93.37
2016-09-22T05:40:23.150Z,93.27
2016-09-22T05:41:23.476Z,93.27
2016-09-22T05:42:23.503Z,93.27
2016-09-22T05:43:23.557Z,93.37
2016-09-22T05:44:23.241Z,93.08
2016-09-22T05:45:23.563Z,92.98
2016-09-22T05:46:23.582Z,93.46
2016-09-22T05:47:23.712Z,92.84
2016-09-22T05:48:23.361Z,93.7
2016-09-22T05:49:23.689Z,93.12
2016-09-22T05:50:23.707Z,93.41
2016-09-22T05:51:23.682Z,93.41
2016-09-22T05:52:23.388Z,93.51
2016-09-22T05:53:23.450Z,93.41
2016-09-22T05:54:23.432Z,93.51
2016-09-22T05:55:23.442Z,93.51
2016-09-22T05:56:23.780Z,93.22
2016-09-22T05:57:23.793Z,93.88
2016-09-22T05:58:23.547Z,94.08
2016-09-22T05:59:23.521Z,93.98
2016-09-22T06:00:23.852Z,93.98
2016-09-22T06:01:23.563Z,93.79
2016-09-22T06:02:23.982Z,93.88
2016-09-22T06:03:23.973Z,93.88
2016-09-22T06:04:23.609Z,93.7
2016-09-22T06:05:23.989Z,94.6
2016-09-22T06:06:23.976Z,94.6
2016-09-22T06:07:23.991Z,94.79
2016-09-22T06:08:23.702Z,95.17
2016-09-22T06:09:24.023Z,95.27
2016-09-22T06:10:23.742Z,95.27
2016-09-22T06:11:24.172Z,95.17
2016-09-22T06:12:24.086Z,95.08
2016-09-22T06:13:24.251Z,95.27
2016-09-22T06:14:24.124Z,95.46
2016-09-22T06:15:24.164Z,95.84
2016-09-22T06:16:24.171Z,95.56
2016-09-22T06:17:23.872Z,95.94
2016-09-22T06:18:24.512Z,95.37
2016-09-22T06:19:24.208Z,95.46
2016-09-22T06:20:23.928Z,95.98
2016-09-22T06:21:24.270Z,96.08
2016-09-22T06:22:23.971Z,96.56
2016-09-22T06:23:24.298Z,97.22
2016-09-22T06:24:24.322Z,97.13
2016-09-22T06:25:24.345Z,97.13
2016-09-22T06:26:24.380Z,98.47
2016-09-22T06:27:24.393Z,97.85
2016-09-22T06:28:24.499Z,98.37
2016-09-22T06:29:24.114Z,98.32
2016-09-22T06:30:24.444Z,98.32
2016-09-22T06:31:24.459Z,98.71
2016-09-22T06:32:24.482Z,99.04
2016-09-22T06:33:24.501Z,99.62
2016-09-22T06:34:24.221Z,99.52
2016-09-22T06:35:24.538Z,99.57
2016-09-22T06:36:24.246Z,99.28
2016-09-22T06:37:24.585Z,99.85
2016-09-22T06:38:24.664Z,99.19
2016-09-22T06:39:24.634Z,99.19
2016-09-22T06:40:24.654Z,99.99
2016-09-22T06:41:24.680Z,99.33
2016-09-22T06:42:24.690Z,99.81
2016-09-22T06:43:24.706Z,99.76
2016-09-22T06:44:24.726Z,99.86
2016-09-22T06:45:24.752Z,99.86
2016-09-22T06:46:24.773Z,99.19
2016-09-22T06:47:24.792Z,99.81
2016-09-22T06:48:24.860Z,99.05
2016-09-22T06:49:24.517Z,99.19
2016-09-22T06:50:24.863Z,97.85
2016-09-22T06:51:24.880Z,97.75
2016-09-22T06:52:24.595Z,97.66
2016-09-22T06:53:24.913Z,96.7
2016-09-22T06:54:24.946Z,97.85
2016-09-22T06:55:24.960Z,97.28
2016-09-22T06:56:24.672Z,98.43
2016-09-22T06:57:25.019Z,97.23
2016-09-22T06:58:25.021Z,98.28
2016-09-22T06:59:25.054Z,97.95
2016-09-22T07:00:24.773Z,98.05
2016-09-22T07:01:25.098Z,97.95
2016-09-22T07:02:25.124Z,98.24
2016-09-22T07:03:25.142Z,97.42
2016-09-22T07:04:25.230Z,95.46
2016-09-22T07:05:25.184Z,95.07
2016-09-22T07:06:25.205Z,94.64
2016-09-22T07:07:24.920Z,92.77
2016-09-22T07:08:25.301Z,91.38
2016-09-22T07:09:25.292Z,89.46
2016-09-22T07:10:25.303Z,87.39
2016-09-22T07:11:25.322Z,86.38
2016-09-22T07:12:25.078Z,84.26
2016-09-22T07:13:25.475Z,84.31
2016-09-22T07:14:25.388Z,84.31
2016-09-22T07:15:25.092Z,84.75
2016-09-22T07:16:25.444Z,85.28
2016-09-22T07:17:25.143Z,85.48
2016-09-22T07:18:25.541Z,86.15
2016-09-22T07:19:25.526Z,86.15
2016-09-22T07:20:25.528Z,87.11
2016-09-22T07:21:25.543Z,87.21
2016-09-22T07:22:25.268Z,87.01
2016-09-22T07:23:25.352Z,86.72
2016-09-22T07:24:25.629Z,86.44
2016-09-22T07:25:25.650Z,86.34
2016-09-22T07:26:25.688Z,86.15
2016-09-22T07:27:25.692Z,86.48
2016-09-22T07:28:25.397Z,86.1
2016-09-22T07:29:25.753Z,86.92
2016-09-22T07:30:25.752Z,87.78
2016-09-22T07:31:25.773Z,89.37
2016-09-22T07:32:25.806Z,90.81
2016-09-22T07:33:25.886Z,91.91
2016-09-22T07:34:25.636Z,92.68
2016-09-22T07:35:25.864Z,93.78
2016-09-22T07:36:25.904Z,94.17
2016-09-22T07:37:25.922Z,95.22
2016-09-22T07:38:25.995Z,95.46
2016-09-22T07:39:26.003Z,96.32
2016-09-22T07:40:26.006Z,96.89
2016-09-22T07:41:26.014Z,96.7
2016-09-22T07:42:26.036Z,97.28
2016-09-22T07:43:26.110Z,97.09
2016-09-22T07:44:26.074Z,98.05
2016-09-22T07:45:26.104Z,97.95
2016-09-22T07:46:26.137Z,97.85
2016-09-22T07:47:25.886Z,97.75
2016-09-22T07:48:26.212Z,97.75
2016-09-22T07:49:26.201Z,97.66
2016-09-22T07:50:26.212Z,97.75
2016-09-22T07:51:26.246Z,97.71
2016-09-22T07:52:26.259Z,97.8
2016-09-22T07:53:26.285Z,98.1
2016-09-22T07:54:26.307Z,97.9
2016-09-22T07:55:26.321Z,97.42
2016-09-22T07:56:26.354Z,98.1
2016-09-22T07:57:26.379Z,98.1
2016-09-22T07:58:26.395Z,97.71
2016-09-22T07:59:26.416Z,98
2016-09-22T08:00:26.437Z,97.8
2016-09-22T08:01:26.149Z,97.95
2016-09-22T08:02:26.506Z,97.28
2016-09-22T08:03:26.557Z,97.18
2016-09-22T08:04:26.578Z,96.8
2016-09-22T08:05:26.543Z,96.7
2016-09-22T08:06:26.566Z,96.99
2016-09-22T08:07:26.597Z,96.99
2016-09-22T08:08:26.619Z,96.99
2016-09-22T08:09:26.648Z,96.61
2016-09-22T08:10:26.658Z,96.51
2016-09-22T08:11:26.699Z,96.22
2016-09-22T08:12:26.392Z,96.22
2016-09-22T08:13:26.716Z,96.22
2016-09-22T08:14:26.739Z,96.42
2016-09-22T08:15:26.783Z,95.7
2016-09-22T08:16:26.498Z,96.18
2016-09-22T08:17:26.816Z,95.79
2016-09-22T08:18:26.527Z,95.98
2016-09-22T08:19:26.865Z,95.12
2016-09-22T08:20:26.878Z,95.12
2016-09-22T08:21:26.910Z,95.21
2016-09-22T08:22:26.936Z,94.64
2016-09-22T08:23:26.638Z,94.17
2016-09-22T08:24:26.992Z,94.49
2016-09-22T08:25:26.678Z,94.02
2016-09-22T08:26:27.037Z,94.02
2016-09-22T08:27:27.047Z,93.82
2016-09-22T08:28:27.068Z,94.49
2016-09-22T08:29:26.768Z,93.54
2016-09-22T08:30:27.128Z,93.15
2016-09-22T08:31:27.140Z,93.15
2016-09-22T08:32:26.853Z,93.15
2016-09-22T08:33:27.426Z,93.35
2016-09-22T08:34:27.208Z,92.48
2016-09-22T08:35:26.925Z,92
2016-09-22T08:36:27.248Z,91.72
2016-09-22T08:37:27.277Z,91.19
2016-09-22T08:38:27.303Z,91.19
2016-09-22T08:39:27.328Z,91.47
2016-09-22T08:40:27.353Z,91.09
2016-09-22T08:41:27.366Z,91.19
2016-09-22T08:42:27.121Z,90.8
2016-09-22T08:43:27.828Z,90.99
2016-09-22T08:44:27.128Z,90.8
2016-09-22T08:45:27.806Z,90.99
2016-09-22T08:46:27.191Z,90.94
2016-09-22T08:47:27.857Z,91.47
2016-09-22T08:48:27.678Z,90.46
2016-09-22T08:49:27.240Z,89.98
2016-09-22T08:50:27.269Z,90.17
2016-09-22T08:51:27.289Z,90.37
2016-09-22T08:52:27.308Z,89.69
2016-09-22T08:53:27.877Z,89.4
2016-09-22T08:54:27.726Z,88.93
2016-09-22T08:55:27.749Z,89.02
2016-09-22T08:56:27.719Z,88.93
2016-09-22T08:57:27.748Z,88.35
2016-09-22T08:58:27.893Z,87.82
2016-09-22T08:59:27.867Z,88.3
2016-09-22T09:00:27.917Z,87.92
2016-09-22T09:01:27.880Z,87.82
2016-09-22T09:02:27.997Z,87.34
2016-09-22T09:03:27.931Z,85.32
2016-09-22T09:04:27.960Z,85.13
2016-09-22T09:05:27.938Z,84.17
2016-09-22T09:06:27.947Z,83.97
2016-09-22T09:07:27.978Z,83.87
2016-09-22T09:08:28.003Z,83.69
2016-09-22T09:09:28.028Z,83.69
2016-09-22T09:10:28.085Z,83.69
2016-09-22T09:11:28.065Z,84.07
2016-09-22T09:12:28.160Z,83.4
2016-09-22T09:13:28.157Z,82.43
2016-09-22T09:14:28.133Z,82.92
2016-09-22T09:15:28.167Z,82.19
2016-09-22T09:16:27.889Z,82.57
2016-09-22T09:17:28.217Z,83.2
2016-09-22T09:18:27.935Z,83.25
2016-09-22T09:19:28.387Z,82.67
2016-09-22T09:20:27.967Z,81.23
2016-09-22T09:21:28.388Z,81.71
2016-09-22T09:22:28.032Z,82.19
2016-09-22T09:23:28.507Z,81.23
2016-09-22T09:24:28.379Z,81.13
2016-09-22T09:25:28.409Z,81.52
2016-09-22T09:26:28.438Z,82.19
2016-09-22T09:27:28.458Z,81.81
2016-09-22T09:28:28.480Z,80.46
2016-09-22T09:29:28.721Z,78.73
2016-09-22T09:30:28.524Z,78.15
2016-09-22T09:31:28.567Z,78.44
2016-09-22T09:32:28.284Z,79.21
2016-09-22T09:33:28.278Z,79.15
2016-09-22T09:34:28.628Z,78.48
2016-09-22T09:35:28.342Z,77.09
2016-09-22T09:36:28.687Z,76.81
2016-09-22T09:37:28.695Z,77.04
2016-09-22T09:38:28.767Z,75.88
2016-09-22T09:39:28.436Z,74.63
2016-09-22T09:40:28.784Z,73.86
2016-09-22T09:41:28.796Z,73.67
2016-09-22T09:42:28.503Z,73.96
2016-09-22T09:43:28.887Z,72.61
2016-09-22T09:44:28.546Z,72.32
2016-09-22T09:45:28.877Z,73.28
2016-09-22T09:46:28.600Z,73.09
2016-09-22T09:47:28.933Z,73.61
2016-09-22T09:48:28.959Z,73.71
2016-09-22T09:49:28.675Z,73.9
2016-09-22T09:50:29.015Z,73.99
2016-09-22T09:51:29.039Z,73.42
2016-09-22T09:52:29.055Z,73.42
2016-09-22T09:53:28.776Z,73.99
2016-09-22T09:54:29.134Z,74.29
2016-09-22T09:55:29.130Z,74.29
2016-09-22T09:56:29.150Z,74.57
2016-09-22T09:57:28.871Z,73.03
2016-09-22T09:58:29.456Z,70.34
2016-09-22T09:59:29.232Z,69.57
2016-09-22T10:00:29.256Z,69.57
2016-09-22T10:01:29.286Z,70.34
2016-09-22T10:02:29.304Z,69.85
2016-09-22T10:03:29.078Z,69.09
2016-09-22T10:04:29.356Z,69.09
2016-09-22T10:05:29.386Z,70.34
2016-09-22T10:06:29.457Z,71.69
2016-09-22T10:07:29.126Z,71.34
2016-09-22T10:08:29.437Z,68.22
2016-09-22T10:09:29.465Z,67.1
2016-09-22T10:10:29.500Z,66.91
2016-09-22T10:11:29.538Z,65.91
2016-09-22T10:12:29.546Z,65.63
2016-09-22T10:13:29.626Z,65.53
2016-09-22T10:14:29.606Z,65.72
2016-09-22T10:15:29.626Z,66.3
2016-09-22T10:16:29.482Z,67.35
2016-09-22T10:17:29.683Z,68.41
2016-09-22T10:18:29.796Z,70.28
2016-09-22T10:19:29.853Z,71.04
2016-09-22T10:20:29.756Z,70.18
2016-09-22T10:21:29.775Z,68.54
2016-09-22T10:22:29.495Z,67.1
2016-09-22T10:23:29.875Z,67.19
2016-09-22T10:24:29.851Z,66.14
2016-09-22T10:25:29.870Z,64.98
2016-09-22T10:26:29.894Z,64.21
2016-09-22T10:27:29.608Z,63.64
2016-09-22T10:28:30.015Z,64.63
2016-09-22T10:29:30.050Z,63.67
2016-09-22T10:30:29.695Z,62.7
2016-09-22T10:31:29.714Z,63.38
2016-09-22T10:32:30.058Z,63.67
2016-09-22T10:33:29.773Z,65.3
2016-09-22T10:34:29.791Z,65.4
2016-09-22T10:35:30.124Z,65.78
2016-09-22T10:36:29.846Z,63.85
2016-09-22T10:37:30.180Z,62.7
2016-09-22T10:38:30.326Z,63.57
2016-09-22T10:39:30.216Z,63.57
2016-09-22T10:40:30.333Z,63.38
2016-09-22T10:41:30.284Z,63.18
2016-09-22T10:42:30.316Z,63.09
2016-09-22T10:43:30.072Z,62.7
2016-09-22T10:44:30.034Z,62.41
2016-09-22T10:45:30.397Z,62.22
2016-09-22T10:46:30.093Z,62.8
2016-09-22T10:47:30.219Z,63.76
2016-09-22T10:48:30.461Z,62.32
2016-09-22T10:49:30.635Z,60.58
2016-09-22T10:50:30.505Z,60.13
2016-09-22T10:51:30.535Z,60.68
2016-09-22T10:52:30.560Z,62.93
2016-09-22T10:53:30.382Z,64.18
2016-09-22T10:54:30.617Z,62.15
2016-09-22T10:55:30.652Z,62.54
2016-09-22T10:56:30.592Z,64.56
2016-09-22T10:57:30.573Z,62.57
2016-09-22T10:58:30.656Z,61.61
2016-09-22T10:59:30.895Z,60.06
2016-09-22T11:00:30.912Z,59.48
2016-09-22T11:01:30.897Z,59.39
2016-09-22T11:02:30.915Z,59.48
2016-09-22T11:03:30.943Z,59.39
2016-09-22T11:04:30.674Z,59.3
2016-09-22T11:05:30.948Z,58.81
2016-09-22T11:06:30.916Z,58.91
2016-09-22T11:07:30.945Z,61.99
2016-09-22T11:08:31.015Z,61.8
2016-09-22T11:09:30.998Z,59.68
2016-09-22T11:10:31.035Z,60.06
2016-09-22T11:11:31.041Z,59.97
2016-09-22T11:12:31.078Z,60.26
2016-09-22T11:13:31.096Z,57.29
2016-09-22T11:14:31.125Z,56.88
2016-09-22T11:15:31.162Z,57.46
2016-09-22T11:16:30.859Z,57.46
2016-09-22T11:17:31.210Z,58.72
2016-09-22T11:18:31.284Z,58.84
2016-09-22T11:19:31.257Z,57.59
2016-09-22T11:20:31.287Z,58.26
2016-09-22T11:21:31.297Z,58.42
2016-09-22T11:22:31.323Z,60
2016-09-22T11:23:31.502Z,60.96
2016-09-22T11:24:31.376Z,61.83
2016-09-22T11:25:31.424Z,62.79
2016-09-22T11:26:31.115Z,60.86
2016-09-22T11:27:31.466Z,60.38
2016-09-22T11:28:31.176Z,58.26
2016-09-22T11:29:31.517Z,57.9
2016-09-22T11:30:31.233Z,56.62
2016-09-22T11:31:31.563Z,56.62
2016-09-22T11:32:31.604Z,56.24
2016-09-22T11:33:31.615Z,55.59
2016-09-22T11:34:31.645Z,56.65
2016-09-22T11:35:31.364Z,58.77
2016-09-22T11:36:31.707Z,57.9
2016-09-22T11:37:31.734Z,56.07
2016-09-22T11:38:31.765Z,55.01
2016-09-22T11:39:31.778Z,55.59
2016-09-22T11:40:31.496Z,54.33
2016-09-22T11:41:31.836Z,54.24
2016-09-22T11:42:31.848Z,55.3
2016-09-22T11:43:31.561Z,57.23
2016-09-22T11:44:31.910Z,57.52
2016-09-22T11:45:31.638Z,56.36
2016-09-22T11:46:31.644Z,56.36
2016-09-22T11:47:32.048Z,56.84
2016-09-22T11:48:32.016Z,56.16
2016-09-22T11:49:32.038Z,54.53
2016-09-22T11:50:31.749Z,55.23
2016-09-22T11:51:32.103Z,55.2
2016-09-22T11:52:32.147Z,56.84
2016-09-22T11:53:31.842Z,57.32
2016-09-22T11:54:32.178Z,56.84
2016-09-22T11:55:32.253Z,56.2
2016-09-22T11:56:32.285Z,56.29
2016-09-22T11:57:32.036Z,55.23
2016-09-22T11:58:32.276Z,54.84
2016-09-22T11:59:31.999Z,54.65
2016-09-22T12:00:32.020Z,55.49
2016-09-22T12:01:32.373Z,53.27
2016-09-22T12:02:32.397Z,54.82
2016-09-22T12:03:32.414Z,55.68
2016-09-22T12:04:32.235Z,55.52
2016-09-22T12:05:32.468Z,55.13
2016-09-22T12:06:32.539Z,56.29
2016-09-22T12:07:32.528Z,55.52
2016-09-22T12:08:32.553Z,53.59
2016-09-22T12:09:32.582Z,53.2
2016-09-22T12:10:32.598Z,54.36
2016-09-22T12:11:32.626Z,56.39
2016-09-22T12:12:32.662Z,56.48
2016-09-22T12:13:32.729Z,55.81
2016-09-22T12:14:32.710Z,55.52
2016-09-22T12:15:32.739Z,55.71
2016-09-22T12:16:32.760Z,55.13
2016-09-22T12:17:32.786Z,55.42
2016-09-22T12:18:32.871Z,56
2016-09-22T12:19:32.849Z,57.16
2016-09-22T12:20:32.867Z,55.65
2016-09-22T12:21:32.898Z,55.16
2016-09-22T12:22:32.621Z,55.07
2016-09-22T12:23:32.636Z,53.91
2016-09-22T12:24:32.984Z,53.78
2016-09-22T12:25:33.009Z,53.59
2016-09-22T12:26:32.718Z,52.81
2016-09-22T12:27:33.048Z,52.62
2016-09-22T12:28:33.139Z,53.2
2016-09-22T12:29:33.117Z,53.11
2016-09-22T12:30:33.145Z,52.81
2016-09-22T12:31:33.167Z,53.2
2016-09-22T12:32:33.190Z,56.22
2016-09-22T12:33:32.967Z,52.94
2016-09-22T12:34:32.927Z,52.26
2016-09-22T12:35:33.280Z,51.39
2016-09-22T12:36:33.309Z,52.55
2016-09-22T12:37:33.327Z,54.71
2016-09-22T12:38:33.343Z,55.19
2016-09-22T12:39:33.388Z,54.22
2016-09-22T12:40:33.407Z,52.87
2016-09-22T12:41:33.437Z,52.48
2016-09-22T12:42:33.468Z,52.67
2016-09-22T12:43:33.540Z,52.97
2016-09-22T12:44:33.521Z,52.67
2016-09-22T12:45:33.540Z,51.42
2016-09-22T12:46:33.582Z,51.42
2016-09-22T12:47:33.602Z,50.16
2016-09-22T12:48:33.677Z,50.65
2016-09-22T12:49:33.705Z,50.74
2016-09-22T12:50:33.370Z,49.7
2016-09-22T12:51:33.796Z,51.06
2016-09-22T12:52:33.751Z,50.76
2016-09-22T12:53:33.507Z,50.6
2016-09-22T12:54:33.481Z,49.54